sensor_id;sensor_type;location;lat;lon;timestamp;P1;durP1;ratioP1;P2;durP2;ratioP2
71207;SDS011;58938;49.868;8.646;2023-01-29T00:01:55;14.68;;;7.68;;
71207;SDS011;58938;49.868;8.646;2023-01-29T00:04:21;14.38;;;7.00;;
71207;SDS011;58938;49.868;8.646;2023-01-29T00:06:47;15.30;;;6.53;;
71207;SDS011;58938;49.868;8.646;2023-01-29T00:09:13;15.13;;;7.13;;
71207;SDS011;58938;49.868;8.646;2023-01-29T00:11:39;17.25;;;7.90;;
71207;SDS011;58938;49.868;8.646;2023-01-29T00:14:05;11.75;;;6.10;;
71207;SDS011;58938;49.868;8.646;2023-01-29T00:16:31;12.95;;;7.03;;
71207;SDS011;58938;49.868;8.646;2023-01-29T00:18:57;12.97;;;6.37;;
71207;SDS011;58938;49.868;8.646;2023-01-29T00:21:23;13.48;;;6.68;;
71207;SDS011;58938;49.868;8.646;2023-01-29T00:23:49;10.45;;;5.97;;
71207;SDS011;58938;49.868;8.646;2023-01-29T00:26:15;15.75;;;6.78;;
71207;SDS011;58938;49.868;8.646;2023-01-29T00:28:42;14.80;;;7.28;;
71207;SDS011;58938;49.868;8.646;2023-01-29T00:31:11;10.03;;;5.80;;
71207;SDS011;58938;49.868;8.646;2023-01-29T00:33:37;10.80;;;5.82;;
71207;SDS011;58938;49.868;8.646;2023-01-29T00:36:04;13.63;;;6.47;;
71207;SDS011;58938;49.868;8.646;2023-01-29T00:38:30;12.80;;;6.95;;
71207;SDS011;58938;49.868;8.646;2023-01-29T00:40:57;16.17;;;8.27;;
71207;SDS011;58938;49.868;8.646;2023-01-29T00:43:42;13.60;;;6.80;;
71207;SDS011;58938;49.868;8.646;2023-01-29T00:46:26;15.30;;;8.68;;
71207;SDS011;58938;49.868;8.646;2023-01-29T00:48:52;15.10;;;7.88;;
71207;SDS011;58938;49.868;8.646;2023-01-29T00:51:18;12.93;;;6.88;;
71207;SDS011;58938;49.868;8.646;2023-01-29T00:53:44;19.70;;;9.10;;
71207;SDS011;58938;49.868;8.646;2023-01-29T00:56:10;15.95;;;8.15;;
71207;SDS011;58938;49.868;8.646;2023-01-29T00:58:36;10.65;;;5.65;;
71207;SDS011;58938;49.868;8.646;2023-01-29T01:01:02;12.07;;;6.57;;
71207;SDS011;58938;49.868;8.646;2023-01-29T01:03:28;11.38;;;5.45;;
71207;SDS011;58938;49.868;8.646;2023-01-29T01:06:05;11.75;;;6.90;;
71207;SDS011;58938;49.868;8.646;2023-01-29T01:08:32;14.98;;;6.90;;
71207;SDS011;58938;49.868;8.646;2023-01-29T01:11:17;15.23;;;7.60;;
71207;SDS011;58938;49.868;8.646;2023-01-29T01:13:43;11.80;;;6.68;;
71207;SDS011;58938;49.868;8.646;2023-01-29T01:16:14;12.75;;;6.65;;
71207;SDS011;58938;49.868;8.646;2023-01-29T01:18:40;11.63;;;5.85;;
71207;SDS011;58938;49.868;8.646;2023-01-29T01:21:06;10.57;;;5.90;;
71207;SDS011;58938;49.868;8.646;2023-01-29T01:23:32;13.83;;;6.30;;
71207;SDS011;58938;49.868;8.646;2023-01-29T01:25:59;12.70;;;6.63;;
71207;SDS011;58938;49.868;8.646;2023-01-29T01:28:25;10.38;;;5.03;;
71207;SDS011;58938;49.868;8.646;2023-01-29T01:30:51;10.10;;;5.30;;
71207;SDS011;58938;49.868;8.646;2023-01-29T01:33:17;10.57;;;6.38;;
71207;SDS011;58938;49.868;8.646;2023-01-29T01:35:43;10.17;;;6.03;;
71207;SDS011;58938;49.868;8.646;2023-01-29T01:38:09;14.70;;;6.30;;
71207;SDS011;58938;49.868;8.646;2023-01-29T01:40:35;11.57;;;6.68;;
71207;SDS011;58938;49.868;8.646;2023-01-29T01:43:01;11.48;;;6.70;;
71207;SDS011;58938;49.868;8.646;2023-01-29T01:47:58;9.57;;;5.53;;
71207;SDS011;58938;49.868;8.646;2023-01-29T01:50:29;10.85;;;5.32;;
71207;SDS011;58938;49.868;8.646;2023-01-29T01:52:57;9.88;;;5.70;;
71207;SDS011;58938;49.868;8.646;2023-01-29T01:55:25;9.90;;;5.23;;
71207;SDS011;58938;49.868;8.646;2023-01-29T01:57:54;11.07;;;5.80;;
71207;SDS011;58938;49.868;8.646;2023-01-29T02:00:22;10.45;;;6.10;;
71207;SDS011;58938;49.868;8.646;2023-01-29T02:02:50;11.98;;;6.22;;
71207;SDS011;58938;49.868;8.646;2023-01-29T02:05:35;12.55;;;7.35;;
71207;SDS011;58938;49.868;8.646;2023-01-29T02:08:26;12.60;;;6.00;;
71207;SDS011;58938;49.868;8.646;2023-01-29T02:11:13;11.13;;;5.78;;
71207;SDS011;58938;49.868;8.646;2023-01-29T02:13:39;15.40;;;6.65;;
71207;SDS011;58938;49.868;8.646;2023-01-29T02:16:06;14.20;;;6.60;;
71207;SDS011;58938;49.868;8.646;2023-01-29T02:18:32;10.05;;;6.13;;
71207;SDS011;58938;49.868;8.646;2023-01-29T02:26:13;10.77;;;6.93;;
71207;SDS011;58938;49.868;8.646;2023-01-29T02:31:26;12.57;;;7.40;;
71207;SDS011;58938;49.868;8.646;2023-01-29T02:34:10;13.50;;;6.57;;
71207;SDS011;58938;49.868;8.646;2023-01-29T02:39:12;13.00;;;6.25;;
71207;SDS011;58938;49.868;8.646;2023-01-29T02:47:26;11.38;;;5.80;;
71207;SDS011;58938;49.868;8.646;2023-01-29T02:54:46;14.77;;;7.27;;
71207;SDS011;58938;49.868;8.646;2023-01-29T02:57:19;14.10;;;6.72;;
71207;SDS011;58938;49.868;8.646;2023-01-29T02:59:48;12.55;;;6.53;;
71207;SDS011;58938;49.868;8.646;2023-01-29T03:02:19;11.90;;;6.00;;
71207;SDS011;58938;49.868;8.646;2023-01-29T03:04:48;12.18;;;6.35;;
71207;SDS011;58938;49.868;8.646;2023-01-29T03:07:21;11.00;;;6.57;;
71207;SDS011;58938;49.868;8.646;2023-01-29T03:10:11;12.63;;;6.82;;
71207;SDS011;58938;49.868;8.646;2023-01-29T03:12:38;15.07;;;7.43;;
71207;SDS011;58938;49.868;8.646;2023-01-29T03:15:10;10.75;;;5.65;;
71207;SDS011;58938;49.868;8.646;2023-01-29T03:17:43;9.77;;;6.30;;
71207;SDS011;58938;49.868;8.646;2023-01-29T03:20:11;14.80;;;6.37;;
71207;SDS011;58938;49.868;8.646;2023-01-29T03:22:39;13.32;;;7.78;;
71207;SDS011;58938;49.868;8.646;2023-01-29T03:25:05;15.55;;;7.38;;
71207;SDS011;58938;49.868;8.646;2023-01-29T03:27:52;12.10;;;6.90;;
71207;SDS011;58938;49.868;8.646;2023-01-29T03:30:59;10.65;;;7.13;;
71207;SDS011;58938;49.868;8.646;2023-01-29T03:33:46;13.97;;;7.57;;
71207;SDS011;58938;49.868;8.646;2023-01-29T03:36:15;12.30;;;6.63;;
71207;SDS011;58938;49.868;8.646;2023-01-29T03:38:42;10.73;;;6.32;;
71207;SDS011;58938;49.868;8.646;2023-01-29T03:41:22;12.27;;;6.68;;
71207;SDS011;58938;49.868;8.646;2023-01-29T03:43:51;11.93;;;6.93;;
71207;SDS011;58938;49.868;8.646;2023-01-29T03:46:22;16.83;;;7.33;;
71207;SDS011;58938;49.868;8.646;2023-01-29T03:48:55;9.32;;;6.10;;
71207;SDS011;58938;49.868;8.646;2023-01-29T03:56:49;14.10;;;7.78;;
71207;SDS011;58938;49.868;8.646;2023-01-29T04:01:45;12.48;;;6.65;;
71207;SDS011;58938;49.868;8.646;2023-01-29T04:06:39;11.23;;;6.60;;
71207;SDS011;58938;49.868;8.646;2023-01-29T04:09:09;11.77;;;7.43;;
71207;SDS011;58938;49.868;8.646;2023-01-29T04:11:37;10.57;;;6.18;;
71207;SDS011;58938;49.868;8.646;2023-01-29T04:14:06;12.43;;;7.57;;
71207;SDS011;58938;49.868;8.646;2023-01-29T04:16:33;12.30;;;6.70;;
71207;SDS011;58938;49.868;8.646;2023-01-29T04:19:00;13.05;;;7.47;;
71207;SDS011;58938;49.868;8.646;2023-01-29T04:21:26;12.57;;;6.73;;
71207;SDS011;58938;49.868;8.646;2023-01-29T04:23:52;12.30;;;6.88;;
71207;SDS011;58938;49.868;8.646;2023-01-29T04:31:25;13.87;;;6.43;;
71207;SDS011;58938;49.868;8.646;2023-01-29T04:34:03;11.57;;;7.43;;
71207;SDS011;58938;49.868;8.646;2023-01-29T04:36:37;13.35;;;7.10;;
71207;SDS011;58938;49.868;8.646;2023-01-29T04:39:14;14.95;;;8.02;;
71207;SDS011;58938;49.868;8.646;2023-01-29T04:41:52;17.27;;;7.95;;
71207;SDS011;58938;49.868;8.646;2023-01-29T04:44:38;14.00;;;7.33;;
71207;SDS011;58938;49.868;8.646;2023-01-29T04:52:07;13.00;;;6.80;;
71207;SDS011;58938;49.868;8.646;2023-01-29T04:57:23;12.82;;;7.35;;
71207;SDS011;58938;49.868;8.646;2023-01-29T04:59:56;17.83;;;8.05;;
71207;SDS011;58938;49.868;8.646;2023-01-29T05:02:24;13.48;;;7.70;;
71207;SDS011;58938;49.868;8.646;2023-01-29T05:04:51;15.35;;;7.85;;
71207;SDS011;58938;49.868;8.646;2023-01-29T05:07:18;11.60;;;6.70;;
71207;SDS011;58938;49.868;8.646;2023-01-29T05:09:45;14.48;;;7.60;;
71207;SDS011;58938;49.868;8.646;2023-01-29T05:12:12;13.20;;;7.97;;
71207;SDS011;58938;49.868;8.646;2023-01-29T05:14:39;12.23;;;6.72;;
71207;SDS011;58938;49.868;8.646;2023-01-29T05:17:08;12.23;;;6.78;;
71207;SDS011;58938;49.868;8.646;2023-01-29T05:19:35;11.10;;;5.90;;
71207;SDS011;58938;49.868;8.646;2023-01-29T05:22:01;13.45;;;7.22;;
71207;SDS011;58938;49.868;8.646;2023-01-29T05:24:29;16.23;;;7.53;;
71207;SDS011;58938;49.868;8.646;2023-01-29T05:26:55;11.68;;;6.97;;
71207;SDS011;58938;49.868;8.646;2023-01-29T05:29:41;15.25;;;7.85;;
71207;SDS011;58938;49.868;8.646;2023-01-29T05:32:09;16.13;;;8.53;;
71207;SDS011;58938;49.868;8.646;2023-01-29T05:34:35;14.07;;;7.70;;
71207;SDS011;58938;49.868;8.646;2023-01-29T05:37:01;14.40;;;7.32;;
71207;SDS011;58938;49.868;8.646;2023-01-29T05:39:27;14.38;;;7.43;;
71207;SDS011;58938;49.868;8.646;2023-01-29T05:41:53;12.67;;;8.13;;
71207;SDS011;58938;49.868;8.646;2023-01-29T05:44:19;15.50;;;8.45;;
71207;SDS011;58938;49.868;8.646;2023-01-29T05:46:45;14.07;;;8.25;;
71207;SDS011;58938;49.868;8.646;2023-01-29T05:49:11;16.45;;;9.07;;
71207;SDS011;58938;49.868;8.646;2023-01-29T05:51:37;13.30;;;7.03;;
71207;SDS011;58938;49.868;8.646;2023-01-29T05:54:03;12.32;;;8.07;;
71207;SDS011;58938;49.868;8.646;2023-01-29T05:56:29;15.90;;;8.70;;
71207;SDS011;58938;49.868;8.646;2023-01-29T05:58:55;15.02;;;8.30;;
71207;SDS011;58938;49.868;8.646;2023-01-29T06:01:22;13.27;;;7.73;;
71207;SDS011;58938;49.868;8.646;2023-01-29T06:03:49;14.15;;;7.60;;
71207;SDS011;58938;49.868;8.646;2023-01-29T06:06:15;13.93;;;8.25;;
71207;SDS011;58938;49.868;8.646;2023-01-29T06:08:41;13.15;;;6.78;;
71207;SDS011;58938;49.868;8.646;2023-01-29T06:11:08;12.57;;;6.82;;
71207;SDS011;58938;49.868;8.646;2023-01-29T06:13:34;13.47;;;8.10;;
71207;SDS011;58938;49.868;8.646;2023-01-29T06:16:03;11.70;;;7.30;;
71207;SDS011;58938;49.868;8.646;2023-01-29T06:18:30;14.52;;;7.75;;
71207;SDS011;58938;49.868;8.646;2023-01-29T06:20:59;13.15;;;6.75;;
71207;SDS011;58938;49.868;8.646;2023-01-29T06:23:25;11.55;;;7.10;;
71207;SDS011;58938;49.868;8.646;2023-01-29T06:25:51;12.17;;;6.90;;
71207;SDS011;58938;49.868;8.646;2023-01-29T06:28:17;12.70;;;8.15;;
71207;SDS011;58938;49.868;8.646;2023-01-29T06:30:43;13.88;;;8.57;;
71207;SDS011;58938;49.868;8.646;2023-01-29T06:33:09;13.98;;;8.18;;
71207;SDS011;58938;49.868;8.646;2023-01-29T06:35:35;16.70;;;9.40;;
71207;SDS011;58938;49.868;8.646;2023-01-29T06:38:01;13.60;;;8.27;;
71207;SDS011;58938;49.868;8.646;2023-01-29T06:40:27;13.57;;;7.80;;
71207;SDS011;58938;49.868;8.646;2023-01-29T06:42:53;16.50;;;8.73;;
71207;SDS011;58938;49.868;8.646;2023-01-29T06:45:19;13.40;;;7.13;;
71207;SDS011;58938;49.868;8.646;2023-01-29T06:47:45;12.38;;;6.18;;
71207;SDS011;58938;49.868;8.646;2023-01-29T06:50:11;13.82;;;8.57;;
71207;SDS011;58938;49.868;8.646;2023-01-29T06:52:37;14.13;;;6.63;;
71207;SDS011;58938;49.868;8.646;2023-01-29T06:55:03;16.42;;;8.35;;
71207;SDS011;58938;49.868;8.646;2023-01-29T06:57:29;11.98;;;6.90;;
71207;SDS011;58938;49.868;8.646;2023-01-29T06:59:55;15.05;;;7.20;;
71207;SDS011;58938;49.868;8.646;2023-01-29T07:02:21;12.87;;;6.83;;
71207;SDS011;58938;49.868;8.646;2023-01-29T07:04:47;14.05;;;7.60;;
71207;SDS011;58938;49.868;8.646;2023-01-29T07:07:13;12.90;;;7.47;;
71207;SDS011;58938;49.868;8.646;2023-01-29T07:09:39;12.45;;;7.18;;
71207;SDS011;58938;49.868;8.646;2023-01-29T07:12:05;18.03;;;7.97;;
71207;SDS011;58938;49.868;8.646;2023-01-29T07:14:32;14.13;;;7.47;;
71207;SDS011;58938;49.868;8.646;2023-01-29T07:16:58;15.75;;;8.30;;
71207;SDS011;58938;49.868;8.646;2023-01-29T07:19:24;14.52;;;7.90;;
71207;SDS011;58938;49.868;8.646;2023-01-29T07:21:49;17.40;;;8.00;;
71207;SDS011;58938;49.868;8.646;2023-01-29T07:24:15;12.68;;;7.43;;
71207;SDS011;58938;49.868;8.646;2023-01-29T07:26:42;11.90;;;7.80;;
71207;SDS011;58938;49.868;8.646;2023-01-29T07:29:08;12.68;;;7.90;;
71207;SDS011;58938;49.868;8.646;2023-01-29T07:31:34;12.70;;;7.60;;
71207;SDS011;58938;49.868;8.646;2023-01-29T07:34:00;12.65;;;6.70;;
71207;SDS011;58938;49.868;8.646;2023-01-29T07:36:26;11.70;;;7.07;;
71207;SDS011;58938;49.868;8.646;2023-01-29T07:38:53;13.00;;;7.53;;
71207;SDS011;58938;49.868;8.646;2023-01-29T07:41:19;14.07;;;8.23;;
71207;SDS011;58938;49.868;8.646;2023-01-29T07:43:45;13.65;;;8.25;;
71207;SDS011;58938;49.868;8.646;2023-01-29T07:46:11;18.75;;;8.75;;
71207;SDS011;58938;49.868;8.646;2023-01-29T07:48:37;12.43;;;7.50;;
71207;SDS011;58938;49.868;8.646;2023-01-29T07:51:03;11.20;;;6.63;;
71207;SDS011;58938;49.868;8.646;2023-01-29T07:53:29;12.52;;;6.45;;
71207;SDS011;58938;49.868;8.646;2023-01-29T07:55:55;11.93;;;7.20;;
71207;SDS011;58938;49.868;8.646;2023-01-29T07:58:21;14.27;;;8.00;;
71207;SDS011;58938;49.868;8.646;2023-01-29T08:00:47;13.73;;;7.57;;
71207;SDS011;58938;49.868;8.646;2023-01-29T08:03:14;14.82;;;7.47;;
71207;SDS011;58938;49.868;8.646;2023-01-29T08:05:41;14.95;;;9.57;;
71207;SDS011;58938;49.868;8.646;2023-01-29T08:08:07;15.20;;;7.72;;
71207;SDS011;58938;49.868;8.646;2023-01-29T08:10:34;14.15;;;7.78;;
71207;SDS011;58938;49.868;8.646;2023-01-29T08:13:00;13.17;;;6.83;;
71207;SDS011;58938;49.868;8.646;2023-01-29T08:15:26;11.63;;;6.63;;
71207;SDS011;58938;49.868;8.646;2023-01-29T08:17:52;12.40;;;7.55;;
71207;SDS011;58938;49.868;8.646;2023-01-29T08:20:18;13.23;;;7.75;;
71207;SDS011;58938;49.868;8.646;2023-01-29T08:22:45;11.27;;;6.85;;
71207;SDS011;58938;49.868;8.646;2023-01-29T08:25:11;12.80;;;6.60;;
71207;SDS011;58938;49.868;8.646;2023-01-29T08:27:37;10.07;;;6.32;;
71207;SDS011;58938;49.868;8.646;2023-01-29T08:30:04;11.40;;;7.25;;
71207;SDS011;58938;49.868;8.646;2023-01-29T08:32:30;13.45;;;7.63;;
71207;SDS011;58938;49.868;8.646;2023-01-29T08:34:56;12.40;;;8.00;;
71207;SDS011;58938;49.868;8.646;2023-01-29T08:37:23;14.55;;;7.90;;
71207;SDS011;58938;49.868;8.646;2023-01-29T08:39:49;15.30;;;8.25;;
71207;SDS011;58938;49.868;8.646;2023-01-29T08:42:15;16.48;;;9.63;;
71207;SDS011;58938;49.868;8.646;2023-01-29T08:44:40;14.93;;;9.10;;
71207;SDS011;58938;49.868;8.646;2023-01-29T08:47:07;11.73;;;7.27;;
71207;SDS011;58938;49.868;8.646;2023-01-29T08:49:32;13.50;;;7.18;;
71207;SDS011;58938;49.868;8.646;2023-01-29T08:51:58;13.48;;;7.40;;
71207;SDS011;58938;49.868;8.646;2023-01-29T08:54:24;12.00;;;7.80;;
71207;SDS011;58938;49.868;8.646;2023-01-29T08:56:50;13.07;;;7.57;;
71207;SDS011;58938;49.868;8.646;2023-01-29T08:59:16;12.68;;;7.13;;
71207;SDS011;58938;49.868;8.646;2023-01-29T09:01:43;12.50;;;8.45;;
71207;SDS011;58938;49.868;8.646;2023-01-29T09:04:09;12.63;;;7.45;;
71207;SDS011;58938;49.868;8.646;2023-01-29T09:06:35;10.83;;;6.70;;
71207;SDS011;58938;49.868;8.646;2023-01-29T09:09:00;15.02;;;7.80;;
71207;SDS011;58938;49.868;8.646;2023-01-29T09:11:26;13.80;;;8.10;;
71207;SDS011;58938;49.868;8.646;2023-01-29T09:13:52;11.90;;;7.18;;
71207;SDS011;58938;49.868;8.646;2023-01-29T09:16:21;11.77;;;7.17;;
71207;SDS011;58938;49.868;8.646;2023-01-29T09:18:47;13.38;;;8.13;;
71207;SDS011;58938;49.868;8.646;2023-01-29T09:21:13;13.27;;;8.40;;
71207;SDS011;58938;49.868;8.646;2023-01-29T09:23:39;6.95;;;4.55;;
71207;SDS011;58938;49.868;8.646;2023-01-29T09:26:05;13.73;;;7.20;;
71207;SDS011;58938;49.868;8.646;2023-01-29T09:28:32;11.23;;;6.97;;
71207;SDS011;58938;49.868;8.646;2023-01-29T09:31:01;14.30;;;9.38;;
71207;SDS011;58938;49.868;8.646;2023-01-29T09:33:27;14.65;;;7.78;;
71207;SDS011;58938;49.868;8.646;2023-01-29T09:35:53;15.10;;;7.63;;
71207;SDS011;58938;49.868;8.646;2023-01-29T09:38:19;14.17;;;6.13;;
71207;SDS011;58938;49.868;8.646;2023-01-29T09:43:15;9.85;;;6.10;;
71207;SDS011;58938;49.868;8.646;2023-01-29T09:45:53;13.52;;;8.20;;
71207;SDS011;58938;49.868;8.646;2023-01-29T09:48:20;13.20;;;7.37;;
71207;SDS011;58938;49.868;8.646;2023-01-29T09:50:48;12.48;;;7.85;;
71207;SDS011;58938;49.868;8.646;2023-01-29T09:56:02;12.75;;;7.55;;
71207;SDS011;58938;49.868;8.646;2023-01-29T09:58:31;12.40;;;7.22;;
71207;SDS011;58938;49.868;8.646;2023-01-29T10:03:36;11.32;;;7.10;;
71207;SDS011;58938;49.868;8.646;2023-01-29T10:08:44;12.18;;;7.22;;
71207;SDS011;58938;49.868;8.646;2023-01-29T10:16:15;11.85;;;7.18;;
71207;SDS011;58938;49.868;8.646;2023-01-29T10:23:38;15.93;;;9.15;;
71207;SDS011;58938;49.868;8.646;2023-01-29T10:26:09;13.32;;;8.65;;
71207;SDS011;58938;49.868;8.646;2023-01-29T10:28:38;17.63;;;8.88;;
71207;SDS011;58938;49.868;8.646;2023-01-29T10:31:08;13.93;;;8.57;;
71207;SDS011;58938;49.868;8.646;2023-01-29T10:33:38;11.80;;;7.13;;
71207;SDS011;58938;49.868;8.646;2023-01-29T10:36:06;13.13;;;7.15;;
71207;SDS011;58938;49.868;8.646;2023-01-29T10:38:51;15.77;;;9.18;;
71207;SDS011;58938;49.868;8.646;2023-01-29T10:41:27;14.85;;;8.32;;
71207;SDS011;58938;49.868;8.646;2023-01-29T10:46:51;17.13;;;8.03;;
71207;SDS011;58938;49.868;8.646;2023-01-29T10:57:08;18.70;;;8.97;;
71207;SDS011;58938;49.868;8.646;2023-01-29T10:59:38;14.88;;;7.88;;
71207;SDS011;58938;49.868;8.646;2023-01-29T11:02:11;16.05;;;8.30;;
71207;SDS011;58938;49.868;8.646;2023-01-29T11:04:39;17.08;;;8.63;;
71207;SDS011;58938;49.868;8.646;2023-01-29T11:07:05;14.20;;;8.85;;
71207;SDS011;58938;49.868;8.646;2023-01-29T11:14:25;15.15;;;8.82;;
71207;SDS011;58938;49.868;8.646;2023-01-29T11:16:51;18.45;;;8.23;;
71207;SDS011;58938;49.868;8.646;2023-01-29T11:19:17;13.95;;;7.70;;
71207;SDS011;58938;49.868;8.646;2023-01-29T11:22:00;14.60;;;8.37;;
71207;SDS011;58938;49.868;8.646;2023-01-29T11:24:28;17.13;;;8.15;;
71207;SDS011;58938;49.868;8.646;2023-01-29T11:26:55;14.55;;;8.77;;
71207;SDS011;58938;49.868;8.646;2023-01-29T11:31:57;18.02;;;9.52;;
71207;SDS011;58938;49.868;8.646;2023-01-29T11:34:24;15.33;;;8.53;;
71207;SDS011;58938;49.868;8.646;2023-01-29T11:36:57;11.10;;;6.40;;
71207;SDS011;58938;49.868;8.646;2023-01-29T11:39:24;16.70;;;8.95;;
71207;SDS011;58938;49.868;8.646;2023-01-29T11:42:01;16.08;;;8.68;;
71207;SDS011;58938;49.868;8.646;2023-01-29T11:44:32;12.70;;;7.25;;
71207;SDS011;58938;49.868;8.646;2023-01-29T11:49:36;9.93;;;6.28;;
71207;SDS011;58938;49.868;8.646;2023-01-29T11:52:03;15.70;;;9.90;;
71207;SDS011;58938;49.868;8.646;2023-01-29T11:54:32;7.60;;;4.15;;
71207;SDS011;58938;49.868;8.646;2023-01-29T11:56:59;11.10;;;6.90;;
71207;SDS011;58938;49.868;8.646;2023-01-29T12:02:20;16.83;;;9.23;;
71207;SDS011;58938;49.868;8.646;2023-01-29T12:04:43;15.73;;;7.90;;
71207;SDS011;58938;49.868;8.646;2023-01-29T12:07:10;13.57;;;8.73;;
71207;SDS011;58938;49.868;8.646;2023-01-29T12:09:37;15.82;;;8.57;;
71207;SDS011;58938;49.868;8.646;2023-01-29T12:12:15;15.50;;;8.13;;
71207;SDS011;58938;49.868;8.646;2023-01-29T12:14:41;15.45;;;9.88;;
71207;SDS011;58938;49.868;8.646;2023-01-29T12:17:12;13.35;;;7.95;;
71207;SDS011;58938;49.868;8.646;2023-01-29T12:19:44;17.73;;;11.05;;
71207;SDS011;58938;49.868;8.646;2023-01-29T12:32:43;13.68;;;7.82;;
71207;SDS011;58938;49.868;8.646;2023-01-29T12:35:24;15.07;;;7.32;;
71207;SDS011;58938;49.868;8.646;2023-01-29T12:40:25;15.55;;;9.63;;
71207;SDS011;58938;49.868;8.646;2023-01-29T12:42:55;14.55;;;8.45;;
71207;SDS011;58938;49.868;8.646;2023-01-29T12:45:22;12.82;;;7.85;;
71207;SDS011;58938;49.868;8.646;2023-01-29T12:47:52;17.23;;;8.93;;
71207;SDS011;58938;49.868;8.646;2023-01-29T12:50:32;13.40;;;8.27;;
71207;SDS011;58938;49.868;8.646;2023-01-29T12:55:45;15.40;;;8.77;;
71207;SDS011;58938;49.868;8.646;2023-01-29T12:58:19;11.48;;;7.50;;
71207;SDS011;58938;49.868;8.646;2023-01-29T13:00:47;15.38;;;7.90;;
71207;SDS011;58938;49.868;8.646;2023-01-29T13:05:56;13.60;;;6.15;;
71207;SDS011;58938;49.868;8.646;2023-01-29T13:10:50;12.45;;;7.20;;
71207;SDS011;58938;49.868;8.646;2023-01-29T13:13:34;15.50;;;7.80;;
71207;SDS011;58938;49.868;8.646;2023-01-29T13:16:02;8.25;;;5.15;;
71207;SDS011;58938;49.868;8.646;2023-01-29T13:20:54;13.32;;;7.88;;
71207;SDS011;58938;49.868;8.646;2023-01-29T13:23:21;12.25;;;7.55;;
71207;SDS011;58938;49.868;8.646;2023-01-29T13:25:50;8.20;;;4.67;;
71207;SDS011;58938;49.868;8.646;2023-01-29T13:28:17;11.25;;;5.05;;
71207;SDS011;58938;49.868;8.646;2023-01-29T13:30:43;15.45;;;9.20;;
71207;SDS011;58938;49.868;8.646;2023-01-29T13:33:17;14.15;;;7.93;;
71207;SDS011;58938;49.868;8.646;2023-01-29T13:35:44;13.48;;;7.80;;
71207;SDS011;58938;49.868;8.646;2023-01-29T13:38:24;12.63;;;7.57;;
71207;SDS011;58938;49.868;8.646;2023-01-29T13:40:51;9.07;;;5.45;;
71207;SDS011;58938;49.868;8.646;2023-01-29T13:43:20;10.52;;;5.78;;
71207;SDS011;58938;49.868;8.646;2023-01-29T13:45:47;10.48;;;6.57;;
71207;SDS011;58938;49.868;8.646;2023-01-29T13:48:28;13.40;;;8.30;;
71207;SDS011;58938;49.868;8.646;2023-01-29T13:51:01;12.60;;;7.13;;
71207;SDS011;58938;49.868;8.646;2023-01-29T13:53:31;16.80;;;9.32;;
71207;SDS011;58938;49.868;8.646;2023-01-29T14:01:11;15.27;;;7.90;;
71207;SDS011;58938;49.868;8.646;2023-01-29T14:03:41;16.70;;;8.88;;
71207;SDS011;58938;49.868;8.646;2023-01-29T14:06:07;16.48;;;10.10;;
71207;SDS011;58938;49.868;8.646;2023-01-29T14:13:40;14.77;;;7.13;;
71207;SDS011;58938;49.868;8.646;2023-01-29T14:18:36;13.98;;;7.32;;
71207;SDS011;58938;49.868;8.646;2023-01-29T14:23:39;13.23;;;6.53;;
71207;SDS011;58938;49.868;8.646;2023-01-29T14:28:50;15.70;;;9.10;;
71207;SDS011;58938;49.868;8.646;2023-01-29T14:34:02;14.45;;;8.65;;
71207;SDS011;58938;49.868;8.646;2023-01-29T14:36:29;10.73;;;5.70;;
71207;SDS011;58938;49.868;8.646;2023-01-29T14:39:03;12.93;;;7.83;;
71207;SDS011;58938;49.868;8.646;2023-01-29T14:41:30;14.40;;;8.75;;
71207;SDS011;58938;49.868;8.646;2023-01-29T14:46:42;14.88;;;8.48;;
71207;SDS011;58938;49.868;8.646;2023-01-29T14:49:08;17.55;;;9.57;;
71207;SDS011;58938;49.868;8.646;2023-01-29T14:51:35;15.47;;;9.80;;
71207;SDS011;58938;49.868;8.646;2023-01-29T14:54:17;18.02;;;9.68;;
71207;SDS011;58938;49.868;8.646;2023-01-29T14:56:51;8.55;;;4.80;;
71207;SDS011;58938;49.868;8.646;2023-01-29T14:59:23;16.20;;;9.35;;
71207;SDS011;58938;49.868;8.646;2023-01-29T15:01:54;12.48;;;7.00;;
71207;SDS011;58938;49.868;8.646;2023-01-29T15:06:54;13.85;;;8.00;;
71207;SDS011;58938;49.868;8.646;2023-01-29T15:11:59;16.50;;;8.82;;
71207;SDS011;58938;49.868;8.646;2023-01-29T15:14:38;16.50;;;9.70;;
71207;SDS011;58938;49.868;8.646;2023-01-29T15:19:35;14.00;;;8.43;;
71207;SDS011;58938;49.868;8.646;2023-01-29T15:22:05;17.85;;;10.35;;
71207;SDS011;58938;49.868;8.646;2023-01-29T15:24:32;17.48;;;8.80;;
71207;SDS011;58938;49.868;8.646;2023-01-29T15:26:58;17.23;;;9.60;;
71207;SDS011;58938;49.868;8.646;2023-01-29T15:29:25;16.13;;;9.53;;
71207;SDS011;58938;49.868;8.646;2023-01-29T15:31:53;17.63;;;10.18;;
71207;SDS011;58938;49.868;8.646;2023-01-29T15:34:19;18.08;;;9.60;;
71207;SDS011;58938;49.868;8.646;2023-01-29T15:36:46;16.45;;;10.10;;
71207;SDS011;58938;49.868;8.646;2023-01-29T15:41:43;17.27;;;10.20;;
71207;SDS011;58938;49.868;8.646;2023-01-29T15:44:16;14.35;;;8.07;;
71207;SDS011;58938;49.868;8.646;2023-01-29T15:46:50;16.42;;;8.98;;
71207;SDS011;58938;49.868;8.646;2023-01-29T15:49:19;15.02;;;9.75;;
71207;SDS011;58938;49.868;8.646;2023-01-29T15:51:46;14.70;;;9.15;;
71207;SDS011;58938;49.868;8.646;2023-01-29T15:54:13;13.40;;;6.57;;
71207;SDS011;58938;49.868;8.646;2023-01-29T15:56:42;14.40;;;8.20;;
71207;SDS011;58938;49.868;8.646;2023-01-29T15:59:13;17.15;;;9.48;;
71207;SDS011;58938;49.868;8.646;2023-01-29T16:01:40;18.83;;;9.95;;
71207;SDS011;58938;49.868;8.646;2023-01-29T16:04:08;19.57;;;9.20;;
71207;SDS011;58938;49.868;8.646;2023-01-29T16:06:38;20.43;;;10.90;;
71207;SDS011;58938;49.868;8.646;2023-01-29T16:09:04;20.58;;;10.75;;
71207;SDS011;58938;49.868;8.646;2023-01-29T16:11:31;19.63;;;9.68;;
71207;SDS011;58938;49.868;8.646;2023-01-29T16:13:58;20.15;;;10.88;;
71207;SDS011;58938;49.868;8.646;2023-01-29T16:16:25;19.00;;;10.73;;
71207;SDS011;58938;49.868;8.646;2023-01-29T16:18:51;19.77;;;9.90;;
71207;SDS011;58938;49.868;8.646;2023-01-29T16:21:26;18.60;;;10.50;;
71207;SDS011;58938;49.868;8.646;2023-01-29T16:23:54;9.63;;;5.53;;
71207;SDS011;58938;49.868;8.646;2023-01-29T16:26:25;21.45;;;10.95;;
71207;SDS011;58938;49.868;8.646;2023-01-29T16:28:52;19.38;;;11.35;;
71207;SDS011;58938;49.868;8.646;2023-01-29T16:31:20;23.47;;;11.57;;
71207;SDS011;58938;49.868;8.646;2023-01-29T16:33:46;22.17;;;12.45;;
71207;SDS011;58938;49.868;8.646;2023-01-29T16:36:20;22.95;;;12.98;;
71207;SDS011;58938;49.868;8.646;2023-01-29T16:38:57;27.05;;;11.90;;
71207;SDS011;58938;49.868;8.646;2023-01-29T16:41:30;22.13;;;11.73;;
71207;SDS011;58938;49.868;8.646;2023-01-29T16:44:01;28.70;;;12.77;;
71207;SDS011;58938;49.868;8.646;2023-01-29T16:46:37;24.15;;;11.68;;
71207;SDS011;58938;49.868;8.646;2023-01-29T16:51:55;22.15;;;11.18;;
71207;SDS011;58938;49.868;8.646;2023-01-29T16:54:40;28.50;;;12.65;;
71207;SDS011;58938;49.868;8.646;2023-01-29T16:57:12;23.37;;;11.40;;
71207;SDS011;58938;49.868;8.646;2023-01-29T16:59:39;24.48;;;12.52;;
71207;SDS011;58938;49.868;8.646;2023-01-29T17:02:17;28.27;;;13.23;;
71207;SDS011;58938;49.868;8.646;2023-01-29T17:04:46;29.60;;;11.90;;
71207;SDS011;58938;49.868;8.646;2023-01-29T17:07:15;26.95;;;13.80;;
71207;SDS011;58938;49.868;8.646;2023-01-29T17:09:46;20.90;;;9.73;;
71207;SDS011;58938;49.868;8.646;2023-01-29T17:12:15;28.23;;;13.40;;
71207;SDS011;58938;49.868;8.646;2023-01-29T17:14:50;27.50;;;12.65;;